createdAt,value
2019-02-25T00:00:53.777Z,99.00
2019-02-25T00:04:03.064Z,99.30
2019-02-25T00:07:10.622Z,99.30
2019-02-25T00:10:18.307Z,99.40
2019-02-25T00:13:25.925Z,99.50
2019-02-25T00:16:33.565Z,99.70
2019-02-25T00:19:41.261Z,99.70
2019-02-25T00:22:48.930Z,99.60
2019-02-25T00:25:56.592Z,99.80
2019-02-25T00:29:04.368Z,99.90
2019-02-25T00:32:11.891Z,99.90
2019-02-25T00:35:20.670Z,99.90
2019-02-25T00:38:28.361Z,99.90
2019-02-25T00:41:36.069Z,99.90
2019-02-25T00:44:43.725Z,99.80
2019-02-25T00:47:51.301Z,99.80
2019-02-25T00:50:59.940Z,99.90
2019-02-25T00:54:07.586Z,99.90
2019-02-25T00:57:16.067Z,99.90
2019-02-25T01:00:26.045Z,99.90
2019-02-25T01:03:33.699Z,99.90
2019-02-25T01:06:41.543Z,99.90
2019-02-25T01:09:49.141Z,99.90
2019-02-25T01:12:56.718Z,99.90
2019-02-25T01:16:04.523Z,99.90
2019-02-25T01:19:12.062Z,99.90
2019-02-25T01:22:19.613Z,99.90
2019-02-25T01:25:27.406Z,99.90
2019-02-25T01:28:36.318Z,99.90
2019-02-25T01:31:44.285Z,99.90
2019-02-25T01:34:51.861Z,99.90
2019-02-25T01:37:59.545Z,99.90
2019-02-25T01:41:07.264Z,99.90
2019-02-25T01:44:14.807Z,99.90
2019-02-25T01:47:22.893Z,99.90
2019-02-25T01:50:30.489Z,99.90
2019-02-25T01:53:38.267Z,99.90
2019-02-25T01:56:45.907Z,99.90
2019-02-25T01:59:53.587Z,99.90
2019-02-25T02:03:01.206Z,99.90
2019-02-25T02:06:09.869Z,99.90
2019-02-25T02:09:17.485Z,99.90
2019-02-25T02:12:25.170Z,99.90
2019-02-25T02:15:32.771Z,99.90
2019-02-25T02:18:40.441Z,99.90
2019-02-25T02:21:48.206Z,99.90
2019-02-25T02:24:55.871Z,99.90
2019-02-25T02:28:03.445Z,99.90
2019-02-25T02:31:11.008Z,99.90
2019-02-25T02:34:18.580Z,99.90
2019-02-25T02:37:26.224Z,99.90
2019-02-25T02:40:33.846Z,99.90
2019-02-25T02:43:41.489Z,99.90
2019-02-25T02:47:16.159Z,99.90
2019-02-25T02:50:25.492Z,99.90
2019-02-25T02:53:33.500Z,99.90
2019-02-25T02:56:41.071Z,99.90
2019-02-25T02:59:48.807Z,99.90
2019-02-25T03:02:56.424Z,99.90
2019-02-25T03:06:04.161Z,99.90
2019-02-25T03:09:12.225Z,99.90
2019-02-25T03:12:20.135Z,99.90
2019-02-25T03:15:27.963Z,99.90
2019-02-25T03:18:35.651Z,99.90
2019-02-25T03:21:43.585Z,99.90
2019-02-25T03:24:51.212Z,99.90
2019-02-25T03:27:58.853Z,99.90
2019-02-25T03:31:06.678Z,99.90
2019-02-25T03:34:14.338Z,99.90
2019-02-25T03:37:21.841Z,99.90
2019-02-25T03:40:29.551Z,99.90
2019-02-25T03:43:37.147Z,99.90
2019-02-25T03:46:44.825Z,99.90
2019-02-25T03:49:52.451Z,99.90
2019-02-25T03:53:00.021Z,99.90
2019-02-25T03:56:07.627Z,99.90
2019-02-25T03:59:15.169Z,99.90
2019-02-25T04:02:23.034Z,99.90
2019-02-25T04:05:30.889Z,99.90
2019-02-25T04:08:38.609Z,99.90
2019-02-25T04:11:46.501Z,99.90
2019-02-25T04:14:54.205Z,99.90
2019-02-25T04:18:02.305Z,99.90
2019-02-25T04:21:09.907Z,99.90
2019-02-25T04:24:17.450Z,99.90
2019-02-25T04:27:25.081Z,99.90
2019-02-25T04:30:32.743Z,99.90
2019-02-25T04:33:40.701Z,99.90
2019-02-25T04:36:48.337Z,99.90
2019-02-25T04:39:56.020Z,99.90
2019-02-25T04:43:03.545Z,99.90
2019-02-25T04:46:11.530Z,99.90
2019-02-25T04:49:20.203Z,99.90
2019-02-25T04:52:28.149Z,99.90
2019-02-25T04:55:35.847Z,99.90
2019-02-25T04:58:43.650Z,99.90
2019-02-25T05:01:51.774Z,99.90
2019-02-25T05:04:59.461Z,99.90
2019-02-25T05:08:07.049Z,99.90
2019-02-25T05:11:17.009Z,99.90
2019-02-25T05:14:24.650Z,99.90
2019-02-25T05:17:32.183Z,99.90
2019-02-25T05:20:39.964Z,99.90
2019-02-25T05:23:47.489Z,99.90
2019-02-25T05:26:56.231Z,99.90
2019-02-25T05:30:03.875Z,99.90
2019-02-25T05:33:12.540Z,99.90
2019-02-25T05:36:20.103Z,99.90
2019-02-25T05:39:27.780Z,99.90
2019-02-25T05:42:37.336Z,99.90
2019-02-25T05:45:44.963Z,99.90
2019-02-25T05:48:52.611Z,99.90
2019-02-25T05:52:00.265Z,99.90
2019-02-25T05:55:09.429Z,99.90
2019-02-25T05:58:17.128Z,99.90
2019-02-25T06:01:24.837Z,99.90
2019-02-25T06:04:32.403Z,99.90
2019-02-25T06:07:40.546Z,99.90
2019-02-25T06:10:48.268Z,99.90
2019-02-25T06:13:55.873Z,99.30
2019-02-25T06:17:03.420Z,98.00
2019-02-25T06:20:11.882Z,97.50
2019-02-25T06:23:19.477Z,96.40
2019-02-25T06:26:27.103Z,95.70
2019-02-25T06:29:34.653Z,95.10
2019-02-25T06:32:42.271Z,94.70
2019-02-25T06:35:50.940Z,94.20
2019-02-25T06:38:58.517Z,93.90
2019-02-25T06:42:06.150Z,91.90
2019-02-25T06:45:15.742Z,92.10
2019-02-25T06:48:23.302Z,90.70
2019-02-25T06:51:30.889Z,89.70
2019-02-25T06:54:38.481Z,88.80
2019-02-25T06:57:46.160Z,84.60
2019-02-25T07:00:54.132Z,79.50
2019-02-25T07:04:26.978Z,75.20
2019-02-25T07:07:52.242Z,71.40
2019-02-25T07:11:24.835Z,67.10
2019-02-25T07:14:47.512Z,64.10
2019-02-25T07:18:11.120Z,60.10
2019-02-25T07:21:40.821Z,57.30
2019-02-25T07:25:07.184Z,55.00
2019-02-25T07:28:32.623Z,52.20
2019-02-25T07:31:53.059Z,51.90
2019-02-25T07:35:08.392Z,50.60
2019-02-25T07:38:53.489Z,50.00
2019-02-25T07:42:18.931Z,48.90
2019-02-25T07:45:45.581Z,47.90
2019-02-25T07:49:03.710Z,47.50
2019-02-25T07:52:34.540Z,47.90
2019-02-25T07:56:10.034Z,47.50
2019-02-25T07:59:54.666Z,48.20
2019-02-25T08:03:15.749Z,49.10
2019-02-25T08:06:30.828Z,49.50
2019-02-25T08:09:46.375Z,49.90
2019-02-25T08:13:19.308Z,50.00
2019-02-25T08:16:44.791Z,49.00
2019-02-25T08:20:04.428Z,48.10
2019-02-25T08:23:30.874Z,47.70
2019-02-25T08:27:04.926Z,47.90
2019-02-25T08:30:24.250Z,47.80
2019-02-25T08:33:51.629Z,47.60
2019-02-25T08:38:04.531Z,48.20
2019-02-25T08:41:32.765Z,48.50
2019-02-25T08:44:55.176Z,50.10
2019-02-25T08:48:10.669Z,50.20
2019-02-25T08:51:18.324Z,49.90
2019-02-25T08:54:26.014Z,50.20
2019-02-25T08:57:33.652Z,50.80
2019-02-25T09:00:42.170Z,51.90
2019-02-25T09:03:49.914Z,51.60
2019-02-25T09:06:57.510Z,52.50
2019-02-25T09:10:06.120Z,52.40
2019-02-25T09:13:13.714Z,53.20
2019-02-25T09:16:21.292Z,53.00
2019-02-25T09:19:29.130Z,54.60
2019-02-25T09:22:36.729Z,55.10
2019-02-25T09:25:44.498Z,57.80
2019-02-25T09:28:52.690Z,60.30
2019-02-25T09:32:00.450Z,62.70
2019-02-25T09:35:08.708Z,66.60
2019-02-25T09:38:16.358Z,70.60
2019-02-25T09:41:30.029Z,74.40
2019-02-25T09:44:33.278Z,76.10
2019-02-25T09:47:40.916Z,80.90
2019-02-25T09:50:48.512Z,86.20
2019-02-25T09:53:56.139Z,88.80
2019-02-25T09:57:03.884Z,90.00
2019-02-25T10:00:14.822Z,91.00
2019-02-25T10:03:22.432Z,90.30
2019-02-25T10:06:30.044Z,88.00
2019-02-25T10:09:37.664Z,87.50
2019-02-25T10:12:45.354Z,84.00
2019-02-25T10:15:53.086Z,79.30
2019-02-25T10:19:00.639Z,80.20
2019-02-25T10:22:08.344Z,82.30
2019-02-25T10:25:15.947Z,86.70
2019-02-25T10:28:23.590Z,90.20
2019-02-25T10:31:31.290Z,91.40
2019-02-25T10:34:39.899Z,91.70
2019-02-25T10:37:48.219Z,92.70
2019-02-25T10:40:55.848Z,93.50
2019-02-25T10:44:04.822Z,95.10
2019-02-25T10:47:13.617Z,95.30
2019-02-25T10:50:22.362Z,95.90
2019-02-25T10:53:30.132Z,95.80
2019-02-25T10:56:59.908Z,95.90
2019-02-25T11:00:10.081Z,96.10
2019-02-25T11:03:20.027Z,96.70
2019-02-25T11:06:29.104Z,97.40
2019-02-25T11:09:48.340Z,98.30
2019-02-25T11:12:57.702Z,98.90
2019-02-25T11:16:06.015Z,98.60
2019-02-25T11:19:13.792Z,98.20
2019-02-25T11:22:21.533Z,98.90
2019-02-25T11:25:30.184Z,99.00
2019-02-25T11:28:39.171Z,98.60
2019-02-25T11:31:47.820Z,98.10
2019-02-25T11:34:56.428Z,97.50
2019-02-25T11:38:04.204Z,95.80
2019-02-25T11:41:11.852Z,94.70
2019-02-25T11:44:21.104Z,93.10
2019-02-25T11:47:28.669Z,93.10
2019-02-25T11:50:36.387Z,92.20
2019-02-25T11:53:44.018Z,92.10
2019-02-25T11:56:51.716Z,93.70
2019-02-25T11:59:59.812Z,94.90
2019-02-25T12:03:07.856Z,96.30
2019-02-25T12:06:15.430Z,97.00
2019-02-25T12:09:23.076Z,97.10
2019-02-25T12:12:30.631Z,97.40
2019-02-25T12:15:38.618Z,96.90
2019-02-25T12:18:46.223Z,96.40
2019-02-25T12:21:53.873Z,96.30
2019-02-25T12:25:01.436Z,95.50
2019-02-25T12:28:09.138Z,95.30
2019-02-25T12:31:18.439Z,95.50
2019-02-25T12:34:26.466Z,96.00
2019-02-25T12:37:34.622Z,95.20
2019-02-25T12:40:42.536Z,94.90
2019-02-25T12:43:50.151Z,95.20
2019-02-25T12:46:58.331Z,94.90
2019-02-25T12:50:07.441Z,94.90
2019-02-25T12:53:15.210Z,95.00
2019-02-25T12:56:23.723Z,94.70
2019-02-25T12:59:31.409Z,95.20
2019-02-25T13:02:39.404Z,95.90
2019-02-25T13:05:47.026Z,96.90
2019-02-25T13:08:55.188Z,97.40
2019-02-25T13:12:03.302Z,97.80
2019-02-25T13:15:13.891Z,97.90
2019-02-25T13:18:21.671Z,98.10
2019-02-25T13:21:29.459Z,98.40
2019-02-25T13:24:39.432Z,98.60
2019-02-25T13:27:47.199Z,98.80
2019-02-25T13:30:55.182Z,99.00
2019-02-25T13:34:03.090Z,99.70
2019-02-25T13:37:10.992Z,99.60
2019-02-25T13:40:20.025Z,99.90
2019-02-25T13:43:27.994Z,99.90
2019-02-25T13:46:35.677Z,99.90
2019-02-25T13:49:44.299Z,99.90
2019-02-25T13:52:52.570Z,99.90
2019-02-25T13:56:00.313Z,99.90
2019-02-25T13:59:08.865Z,99.90
2019-02-25T14:02:16.695Z,99.90
2019-02-25T14:05:24.737Z,99.90
2019-02-25T14:08:34.818Z,99.90
2019-02-25T14:11:42.279Z,99.90
2019-02-25T14:14:51.841Z,99.90
2019-02-25T14:17:59.854Z,99.90
2019-02-25T14:21:07.919Z,99.90
2019-02-25T14:24:16.129Z,99.90
2019-02-25T14:27:27.131Z,99.90
2019-02-25T14:30:35.223Z,99.90
2019-02-25T14:33:43.338Z,99.90
2019-02-25T14:36:52.463Z,99.90
2019-02-25T14:40:04.129Z,99.90
2019-02-25T14:43:14.828Z,99.90
2019-02-25T14:46:22.545Z,99.90
2019-02-25T14:49:32.456Z,99.90
2019-02-25T14:52:40.395Z,99.90
2019-02-25T14:55:50.337Z,99.90
2019-02-25T14:58:57.380Z,99.90
2019-02-25T15:02:06.302Z,99.90
2019-02-25T15:05:16.772Z,99.90
2019-02-25T15:08:25.790Z,99.90
2019-02-25T15:11:33.625Z,99.90
2019-02-25T15:14:42.295Z,99.90
2019-02-25T15:17:50.521Z,99.90
2019-02-25T15:21:00.649Z,99.90
2019-02-25T15:24:10.364Z,99.90
2019-02-25T15:27:20.099Z,99.90
2019-02-25T15:30:30.382Z,99.90
2019-02-25T15:33:37.984Z,99.90
2019-02-25T15:36:46.484Z,99.90
2019-02-25T15:39:55.915Z,99.90
2019-02-25T15:43:05.858Z,99.90
2019-02-25T15:46:16.642Z,99.90
2019-02-25T15:49:25.639Z,99.90
2019-02-25T15:52:39.843Z,99.90
2019-02-25T15:55:42.995Z,99.90
2019-02-25T15:58:52.300Z,99.90
2019-02-25T16:02:00.099Z,99.90
2019-02-25T16:05:09.940Z,99.90
2019-02-25T16:08:19.403Z,99.90
2019-02-25T16:11:27.354Z,99.90
2019-02-25T16:14:35.188Z,99.90
2019-02-25T16:17:44.584Z,99.90
2019-02-25T16:20:52.303Z,99.90
2019-02-25T16:24:02.049Z,99.90
2019-02-25T16:27:09.787Z,99.90
2019-02-25T16:30:19.088Z,99.90
2019-02-25T16:33:28.191Z,99.90
2019-02-25T16:36:36.405Z,99.90
2019-02-25T16:39:50.172Z,99.90
2019-02-25T16:42:59.745Z,99.90
2019-02-25T16:46:09.232Z,99.90
2019-02-25T16:49:16.894Z,99.90
2019-02-25T16:52:24.729Z,99.90
2019-02-25T16:55:32.721Z,99.90
2019-02-25T16:58:40.557Z,99.90
2019-02-25T17:01:48.231Z,99.90
2019-02-25T17:04:56.115Z,99.90
2019-02-25T17:08:05.572Z,99.90
2019-02-25T17:11:15.181Z,99.90
2019-02-25T17:14:23.980Z,99.90
2019-02-25T17:17:32.478Z,99.90
2019-02-25T17:20:40.922Z,99.90
2019-02-25T17:23:48.582Z,99.90
2019-02-25T17:26:56.147Z,99.90
2019-02-25T17:30:03.850Z,99.90
2019-02-25T17:33:14.830Z,99.90
2019-02-25T17:36:22.767Z,99.90
2019-02-25T17:39:32.891Z,99.90
2019-02-25T17:42:40.174Z,99.90
2019-02-25T17:45:47.923Z,99.90
2019-02-25T17:48:55.538Z,99.90
2019-02-25T17:52:03.217Z,99.90
2019-02-25T17:55:13.607Z,99.90
2019-02-25T17:58:21.951Z,99.90
2019-02-25T18:01:31.134Z,99.90
2019-02-25T18:04:39.967Z,99.90
2019-02-25T18:07:48.654Z,99.90
2019-02-25T18:10:59.255Z,99.90
2019-02-25T18:14:09.128Z,99.90
2019-02-25T18:17:19.197Z,99.90
2019-02-25T18:20:27.330Z,99.90
2019-02-25T18:23:36.327Z,99.90
2019-02-25T18:26:46.936Z,99.90
2019-02-25T18:29:59.587Z,99.90
2019-02-25T18:33:07.567Z,99.90
2019-02-25T18:36:16.462Z,99.90
2019-02-25T18:39:25.775Z,99.90
2019-02-25T18:42:36.478Z,99.90
2019-02-25T18:45:44.779Z,99.90
2019-02-25T18:48:52.548Z,99.90
2019-02-25T18:52:00.293Z,99.90
2019-02-25T18:55:09.520Z,99.90
2019-02-25T18:58:18.330Z,99.90
2019-02-25T19:01:26.726Z,99.90
2019-02-25T19:04:34.984Z,99.90
2019-02-25T19:07:43.707Z,99.90
2019-02-25T19:10:53.182Z,99.90
2019-02-25T19:14:03.145Z,99.90
2019-02-25T19:17:10.131Z,99.90
2019-02-25T19:20:17.967Z,99.90
2019-02-25T19:23:25.785Z,99.90
2019-02-25T19:26:33.532Z,99.90
2019-02-25T19:29:41.176Z,99.90
2019-02-25T19:32:49.297Z,99.90
2019-02-25T19:35:58.817Z,99.90
2019-02-25T19:39:11.941Z,99.90
2019-02-25T19:42:22.448Z,99.90
2019-02-25T19:45:29.742Z,99.90
2019-02-25T19:48:38.911Z,99.90
2019-02-25T19:51:48.403Z,99.90
2019-02-25T19:54:57.875Z,99.90
2019-02-25T19:58:05.722Z,99.90
2019-02-25T20:01:13.446Z,99.90
2019-02-25T20:04:21.502Z,99.90
2019-02-25T20:07:30.913Z,99.90
2019-02-25T20:10:38.674Z,99.90
2019-02-25T20:13:46.717Z,99.90
2019-02-25T20:16:54.778Z,99.90
2019-02-25T20:20:04.392Z,99.90
2019-02-25T20:23:11.891Z,99.90
2019-02-25T20:26:20.123Z,99.90
2019-02-25T20:29:29.273Z,99.90
2019-02-25T20:32:38.492Z,99.90
2019-02-25T20:35:51.051Z,99.90
2019-02-25T20:38:55.486Z,99.90
2019-02-25T20:42:04.091Z,99.90
2019-02-25T20:45:14.776Z,99.90
2019-02-25T20:48:22.529Z,99.90
2019-02-25T20:51:31.605Z,99.90
2019-02-25T20:54:41.619Z,99.90
2019-02-25T20:57:48.952Z,99.90
2019-02-25T21:00:56.625Z,99.90
2019-02-25T21:04:05.449Z,99.90
2019-02-25T21:07:13.313Z,99.90
2019-02-25T21:10:22.748Z,99.90
2019-02-25T21:13:33.415Z,99.90
2019-02-25T21:16:40.917Z,99.90
2019-02-25T21:19:48.586Z,99.90
2019-02-25T21:22:57.744Z,99.90
2019-02-25T21:26:07.448Z,99.90
2019-02-25T21:29:14.958Z,99.90
2019-02-25T21:32:24.105Z,99.90
2019-02-25T21:35:36.647Z,99.90
2019-02-25T21:38:40.947Z,99.90
2019-02-25T21:41:48.475Z,99.90
2019-02-25T21:44:57.024Z,99.90
2019-02-25T21:48:07.443Z,99.90
2019-02-25T21:51:14.791Z,99.90
2019-02-25T21:54:22.870Z,99.90
2019-02-25T21:57:31.400Z,99.90
2019-02-25T22:00:40.880Z,99.90
2019-02-25T22:03:50.477Z,99.90
2019-02-25T22:07:00.172Z,99.90
2019-02-25T22:10:09.206Z,99.90
2019-02-25T22:13:18.363Z,99.90
2019-02-25T22:16:27.861Z,99.90
2019-02-25T22:19:37.441Z,99.90
2019-02-25T22:22:45.251Z,99.90
2019-02-25T22:25:52.989Z,99.90
2019-02-25T22:29:01.828Z,99.90
2019-02-25T22:32:11.251Z,99.90
2019-02-25T22:35:19.064Z,99.90
2019-02-25T22:38:26.709Z,99.90
2019-02-25T22:41:34.467Z,99.90
2019-02-25T22:44:45.160Z,99.90
2019-02-25T22:47:53.301Z,99.90
2019-02-25T22:51:02.524Z,99.90
2019-02-25T22:54:12.148Z,99.90
2019-02-25T22:57:20.871Z,99.90
2019-02-25T23:00:58.196Z,99.90
2019-02-25T23:04:15.551Z,99.90
2019-02-25T23:07:24.618Z,99.90
2019-02-25T23:10:32.520Z,99.90
2019-02-25T23:13:40.583Z,99.90
2019-02-25T23:16:48.356Z,99.90
2019-02-25T23:19:57.798Z,99.90
2019-02-25T23:23:06.694Z,99.90
2019-02-25T23:26:17.070Z,99.90
2019-02-25T23:29:27.953Z,99.90
2019-02-25T23:32:34.007Z,99.90
2019-02-25T23:35:44.685Z,99.90
2019-02-25T23:38:52.565Z,99.90
2019-02-25T23:42:00.645Z,99.90
2019-02-25T23:45:10.753Z,99.90
2019-02-25T23:48:18.529Z,99.90
2019-02-25T23:51:27.109Z,99.90
2019-02-25T23:54:34.682Z,99.90
2019-02-25T23:57:42.483Z,99.90
